sensor_id;sensor_type;location;lat;lon;timestamp;temperature;humidity
6244;DHT22;3155;49.940;8.450;2022-07-23T00:01:30;21.20;99.90
6244;DHT22;3155;49.940;8.450;2022-07-23T00:03:58;21.10;99.90
6244;DHT22;3155;49.940;8.450;2022-07-23T00:06:27;21.10;99.90
6244;DHT22;3155;49.940;8.450;2022-07-23T00:08:53;21.00;99.90
6244;DHT22;3155;49.940;8.450;2022-07-23T00:11:20;21.00;99.90
6244;DHT22;3155;49.940;8.450;2022-07-23T00:13:48;21.00;99.90
6244;DHT22;3155;49.940;8.450;2022-07-23T00:16:18;20.90;99.90
6244;DHT22;3155;49.940;8.450;2022-07-23T00:18:45;20.80;99.90
6244;DHT22;3155;49.940;8.450;2022-07-23T00:21:14;20.80;99.90
6244;DHT22;3155;49.940;8.450;2022-07-23T00:23:41;20.80;99.90
6244;DHT22;3155;49.940;8.450;2022-07-23T00:26:07;20.70;99.90
6244;DHT22;3155;49.940;8.450;2022-07-23T00:28:34;20.60;99.90
6244;DHT22;3155;49.940;8.450;2022-07-23T00:31:04;20.50;99.90
6244;DHT22;3155;49.940;8.450;2022-07-23T00:33:31;20.50;99.90
6244;DHT22;3155;49.940;8.450;2022-07-23T00:36:01;20.40;99.90
6244;DHT22;3155;49.940;8.450;2022-07-23T00:38:27;20.40;99.90
6244;DHT22;3155;49.940;8.450;2022-07-23T00:40:54;20.30;99.90
6244;DHT22;3155;49.940;8.450;2022-07-23T00:43:21;20.40;99.90
6244;DHT22;3155;49.940;8.450;2022-07-23T00:45:48;20.40;99.90
6244;DHT22;3155;49.940;8.450;2022-07-23T00:48:15;20.40;99.90
6244;DHT22;3155;49.940;8.450;2022-07-23T00:50:43;20.40;99.90
6244;DHT22;3155;49.940;8.450;2022-07-23T00:53:10;20.40;99.90
6244;DHT22;3155;49.940;8.450;2022-07-23T00:55:38;20.40;99.90
6244;DHT22;3155;49.940;8.450;2022-07-23T00:58:05;20.30;99.90
6244;DHT22;3155;49.940;8.450;2022-07-23T01:00:32;20.30;99.90
6244;DHT22;3155;49.940;8.450;2022-07-23T01:02:59;20.30;99.90
6244;DHT22;3155;49.940;8.450;2022-07-23T01:05:29;20.30;99.90
6244;DHT22;3155;49.940;8.450;2022-07-23T01:07:56;20.40;99.90
6244;DHT22;3155;49.940;8.450;2022-07-23T01:10:25;20.60;99.90
6244;DHT22;3155;49.940;8.450;2022-07-23T01:13:05;20.70;99.90
6244;DHT22;3155;49.940;8.450;2022-07-23T01:15:36;20.70;99.90
6244;DHT22;3155;49.940;8.450;2022-07-23T01:18:05;20.50;99.90
6244;DHT22;3155;49.940;8.450;2022-07-23T01:20:32;20.30;99.90
6244;DHT22;3155;49.940;8.450;2022-07-23T01:22:59;20.20;99.90
6244;DHT22;3155;49.940;8.450;2022-07-23T01:25:26;19.80;99.90
6244;DHT22;3155;49.940;8.450;2022-07-23T01:27:54;19.40;99.90
6244;DHT22;3155;49.940;8.450;2022-07-23T01:30:21;19.00;99.90
6244;DHT22;3155;49.940;8.450;2022-07-23T01:32:47;18.70;99.90
6244;DHT22;3155;49.940;8.450;2022-07-23T01:35:14;18.50;99.90
6244;DHT22;3155;49.940;8.450;2022-07-23T01:37:41;18.40;99.90
6244;DHT22;3155;49.940;8.450;2022-07-23T01:40:08;18.30;99.90
6244;DHT22;3155;49.940;8.450;2022-07-23T01:42:35;18.10;99.90
6244;DHT22;3155;49.940;8.450;2022-07-23T01:45:06;18.00;99.90
6244;DHT22;3155;49.940;8.450;2022-07-23T01:47:33;18.00;99.90
6244;DHT22;3155;49.940;8.450;2022-07-23T01:50:00;18.00;99.90
6244;DHT22;3155;49.940;8.450;2022-07-23T01:52:27;18.00;99.90
6244;DHT22;3155;49.940;8.450;2022-07-23T01:54:57;17.90;99.90
6244;DHT22;3155;49.940;8.450;2022-07-23T01:57:23;17.90;99.90
6244;DHT22;3155;49.940;8.450;2022-07-23T01:59:53;17.90;99.90
6244;DHT22;3155;49.940;8.450;2022-07-23T02:02:22;17.90;99.90
6244;DHT22;3155;49.940;8.450;2022-07-23T02:04:52;17.90;99.90
6244;DHT22;3155;49.940;8.450;2022-07-23T02:07:19;17.90;99.90
6244;DHT22;3155;49.940;8.450;2022-07-23T02:09:45;18.00;99.90
6244;DHT22;3155;49.940;8.450;2022-07-23T02:12:12;18.10;99.90
6244;DHT22;3155;49.940;8.450;2022-07-23T02:14:42;18.00;99.90
6244;DHT22;3155;49.940;8.450;2022-07-23T02:17:09;18.00;99.90
6244;DHT22;3155;49.940;8.450;2022-07-23T02:19:37;17.90;99.90
6244;DHT22;3155;49.940;8.450;2022-07-23T02:22:03;17.90;99.90
6244;DHT22;3155;49.940;8.450;2022-07-23T02:24:33;17.90;99.90
6244;DHT22;3155;49.940;8.450;2022-07-23T02:27:00;17.90;99.90
6244;DHT22;3155;49.940;8.450;2022-07-23T02:29:27;17.90;99.90
6244;DHT22;3155;49.940;8.450;2022-07-23T02:31:54;17.90;99.90
6244;DHT22;3155;49.940;8.450;2022-07-23T02:34:20;17.90;99.90
6244;DHT22;3155;49.940;8.450;2022-07-23T02:36:47;17.90;99.90
6244;DHT22;3155;49.940;8.450;2022-07-23T02:39:14;18.00;99.90
6244;DHT22;3155;49.940;8.450;2022-07-23T02:41:41;18.00;99.90
6244;DHT22;3155;49.940;8.450;2022-07-23T02:44:08;18.00;99.90
6244;DHT22;3155;49.940;8.450;2022-07-23T02:46:36;18.00;99.90
6244;DHT22;3155;49.940;8.450;2022-07-23T02:49:05;18.00;99.90
6244;DHT22;3155;49.940;8.450;2022-07-23T02:51:32;18.00;99.90
6244;DHT22;3155;49.940;8.450;2022-07-23T02:54:02;18.00;99.90
6244;DHT22;3155;49.940;8.450;2022-07-23T02:56:29;18.00;99.90
6244;DHT22;3155;49.940;8.450;2022-07-23T02:58:56;18.00;99.90
6244;DHT22;3155;49.940;8.450;2022-07-23T03:01:23;18.00;99.90
6244;DHT22;3155;49.940;8.450;2022-07-23T03:03:50;18.00;99.90
6244;DHT22;3155;49.940;8.450;2022-07-23T03:06:20;17.90;99.90
6244;DHT22;3155;49.940;8.450;2022-07-23T03:08:47;17.90;99.90
6244;DHT22;3155;49.940;8.450;2022-07-23T03:11:14;17.90;99.90
6244;DHT22;3155;49.940;8.450;2022-07-23T03:13:42;18.00;99.90
6244;DHT22;3155;49.940;8.450;2022-07-23T03:16:09;18.10;99.90
6244;DHT22;3155;49.940;8.450;2022-07-23T03:18:37;18.10;99.90
6244;DHT22;3155;49.940;8.450;2022-07-23T03:21:07;18.10;99.90
6244;DHT22;3155;49.940;8.450;2022-07-23T03:23:34;18.10;99.90
6244;DHT22;3155;49.940;8.450;2022-07-23T03:26:09;18.10;99.90
6244;DHT22;3155;49.940;8.450;2022-07-23T03:28:36;18.00;99.90
6244;DHT22;3155;49.940;8.450;2022-07-23T03:31:02;18.00;99.90
6244;DHT22;3155;49.940;8.450;2022-07-23T03:33:35;18.10;99.90
6244;DHT22;3155;49.940;8.450;2022-07-23T03:36:04;18.10;99.90
6244;DHT22;3155;49.940;8.450;2022-07-23T03:38:35;18.10;99.90
6244;DHT22;3155;49.940;8.450;2022-07-23T03:41:03;18.10;99.90
6244;DHT22;3155;49.940;8.450;2022-07-23T03:43:31;18.10;99.90
6244;DHT22;3155;49.940;8.450;2022-07-23T03:45:58;18.10;99.90
6244;DHT22;3155;49.940;8.450;2022-07-23T03:48:24;18.00;99.90
6244;DHT22;3155;49.940;8.450;2022-07-23T03:50:51;18.00;99.90
6244;DHT22;3155;49.940;8.450;2022-07-23T03:53:18;18.00;99.90
6244;DHT22;3155;49.940;8.450;2022-07-23T03:55:45;18.00;99.90
6244;DHT22;3155;49.940;8.450;2022-07-23T03:58:12;18.10;99.90
6244;DHT22;3155;49.940;8.450;2022-07-23T04:00:39;18.10;99.90
6244;DHT22;3155;49.940;8.450;2022-07-23T04:03:09;18.10;99.90
6244;DHT22;3155;49.940;8.450;2022-07-23T04:05:36;18.10;99.90
6244;DHT22;3155;49.940;8.450;2022-07-23T04:08:03;18.10;99.90
6244;DHT22;3155;49.940;8.450;2022-07-23T04:10:29;18.10;99.90
6244;DHT22;3155;49.940;8.450;2022-07-23T04:12:59;18.00;99.90
6244;DHT22;3155;49.940;8.450;2022-07-23T04:15:29;18.00;99.90
6244;DHT22;3155;49.940;8.450;2022-07-23T04:17:56;17.90;99.90
6244;DHT22;3155;49.940;8.450;2022-07-23T04:20:23;17.90;99.90
6244;DHT22;3155;49.940;8.450;2022-07-23T04:22:49;17.90;99.90
6244;DHT22;3155;49.940;8.450;2022-07-23T04:25:17;17.90;99.90
6244;DHT22;3155;49.940;8.450;2022-07-23T04:27:44;18.00;99.90
6244;DHT22;3155;49.940;8.450;2022-07-23T04:30:11;18.00;99.90
6244;DHT22;3155;49.940;8.450;2022-07-23T04:32:37;18.10;99.90
6244;DHT22;3155;49.940;8.450;2022-07-23T04:35:10;18.20;99.90
6244;DHT22;3155;49.940;8.450;2022-07-23T04:37:37;18.30;99.90
6244;DHT22;3155;49.940;8.450;2022-07-23T04:40:06;18.50;99.90
6244;DHT22;3155;49.940;8.450;2022-07-23T04:42:33;18.60;99.90
6244;DHT22;3155;49.940;8.450;2022-07-23T04:44:59;18.70;99.90
6244;DHT22;3155;49.940;8.450;2022-07-23T04:47:26;18.80;99.90
6244;DHT22;3155;49.940;8.450;2022-07-23T04:49:54;19.00;99.90
6244;DHT22;3155;49.940;8.450;2022-07-23T04:52:20;19.20;99.90
6244;DHT22;3155;49.940;8.450;2022-07-23T04:54:47;19.40;99.90
6244;DHT22;3155;49.940;8.450;2022-07-23T04:57:14;19.50;99.90
6244;DHT22;3155;49.940;8.450;2022-07-23T04:59:41;19.50;99.90
6244;DHT22;3155;49.940;8.450;2022-07-23T05:02:08;19.50;99.90
6244;DHT22;3155;49.940;8.450;2022-07-23T05:04:35;19.40;99.90
6244;DHT22;3155;49.940;8.450;2022-07-23T05:07:02;19.40;99.90
6244;DHT22;3155;49.940;8.450;2022-07-23T05:09:28;19.30;99.90
6244;DHT22;3155;49.940;8.450;2022-07-23T05:11:55;19.30;99.90
6244;DHT22;3155;49.940;8.450;2022-07-23T05:14:22;19.30;99.90
6244;DHT22;3155;49.940;8.450;2022-07-23T05:16:49;19.30;99.90
6244;DHT22;3155;49.940;8.450;2022-07-23T05:19:15;19.30;99.90
6244;DHT22;3155;49.940;8.450;2022-07-23T05:21:42;19.40;99.90
6244;DHT22;3155;49.940;8.450;2022-07-23T05:24:09;19.40;99.90
6244;DHT22;3155;49.940;8.450;2022-07-23T05:26:36;19.50;99.90
6244;DHT22;3155;49.940;8.450;2022-07-23T05:29:03;19.60;99.90
6244;DHT22;3155;49.940;8.450;2022-07-23T05:31:30;19.80;99.90
6244;DHT22;3155;49.940;8.450;2022-07-23T05:33:57;19.90;99.90
6244;DHT22;3155;49.940;8.450;2022-07-23T05:36:24;20.00;99.90
6244;DHT22;3155;49.940;8.450;2022-07-23T05:38:50;20.10;99.90
6244;DHT22;3155;49.940;8.450;2022-07-23T05:41:19;20.20;99.90
6244;DHT22;3155;49.940;8.450;2022-07-23T05:43:46;20.30;99.90
6244;DHT22;3155;49.940;8.450;2022-07-23T05:46:13;20.40;99.90
6244;DHT22;3155;49.940;8.450;2022-07-23T05:48:40;20.50;99.90
6244;DHT22;3155;49.940;8.450;2022-07-23T05:51:09;20.40;99.90
6244;DHT22;3155;49.940;8.450;2022-07-23T05:53:35;20.40;99.90
6244;DHT22;3155;49.940;8.450;2022-07-23T05:56:05;20.30;99.90
6244;DHT22;3155;49.940;8.450;2022-07-23T05:58:32;20.50;99.90
6244;DHT22;3155;49.940;8.450;2022-07-23T06:00:59;21.20;99.90
6244;DHT22;3155;49.940;8.450;2022-07-23T06:03:26;22.10;99.90
6244;DHT22;3155;49.940;8.450;2022-07-23T06:05:53;23.20;99.90
6244;DHT22;3155;49.940;8.450;2022-07-23T06:08:20;24.20;99.90
6244;DHT22;3155;49.940;8.450;2022-07-23T06:10:46;24.90;99.90
6244;DHT22;3155;49.940;8.450;2022-07-23T06:13:13;25.00;99.90
6244;DHT22;3155;49.940;8.450;2022-07-23T06:15:40;25.20;99.90
6244;DHT22;3155;49.940;8.450;2022-07-23T06:18:07;25.50;99.90
6244;DHT22;3155;49.940;8.450;2022-07-23T06:20:34;26.00;99.90
6244;DHT22;3155;49.940;8.450;2022-07-23T06:23:01;25.90;99.90
6244;DHT22;3155;49.940;8.450;2022-07-23T06:25:28;25.60;99.90
6244;DHT22;3155;49.940;8.450;2022-07-23T06:27:54;25.80;99.90
6244;DHT22;3155;49.940;8.450;2022-07-23T06:30:21;26.10;99.90
6244;DHT22;3155;49.940;8.450;2022-07-23T06:32:50;26.70;99.90
6244;DHT22;3155;49.940;8.450;2022-07-23T06:35:17;26.40;99.90
6244;DHT22;3155;49.940;8.450;2022-07-23T06:37:44;26.30;99.90
6244;DHT22;3155;49.940;8.450;2022-07-23T06:40:14;26.20;99.90
6244;DHT22;3155;49.940;8.450;2022-07-23T06:42:40;26.50;99.90
6244;DHT22;3155;49.940;8.450;2022-07-23T06:45:08;26.80;99.90
6244;DHT22;3155;49.940;8.450;2022-07-23T06:47:35;26.90;99.90
6244;DHT22;3155;49.940;8.450;2022-07-23T06:50:02;26.90;99.90
6244;DHT22;3155;49.940;8.450;2022-07-23T06:52:29;27.20;99.90
6244;DHT22;3155;49.940;8.450;2022-07-23T06:54:56;27.40;99.90
6244;DHT22;3155;49.940;8.450;2022-07-23T06:57:22;27.10;99.90
6244;DHT22;3155;49.940;8.450;2022-07-23T06:59:52;26.70;99.90
6244;DHT22;3155;49.940;8.450;2022-07-23T07:02:21;26.50;99.90
6244;DHT22;3155;49.940;8.450;2022-07-23T07:04:49;26.80;99.90
6244;DHT22;3155;49.940;8.450;2022-07-23T07:07:15;27.10;99.90
6244;DHT22;3155;49.940;8.450;2022-07-23T07:09:42;27.40;99.90
6244;DHT22;3155;49.940;8.450;2022-07-23T07:12:11;27.50;99.90
6244;DHT22;3155;49.940;8.450;2022-07-23T07:14:38;27.50;99.90
6244;DHT22;3155;49.940;8.450;2022-07-23T07:17:05;27.20;99.90
6244;DHT22;3155;49.940;8.450;2022-07-23T07:19:32;26.40;99.90
6244;DHT22;3155;49.940;8.450;2022-07-23T07:21:58;26.20;99.90
6244;DHT22;3155;49.940;8.450;2022-07-23T07:24:25;25.70;99.90
6244;DHT22;3155;49.940;8.450;2022-07-23T07:26:59;25.40;99.90
6244;DHT22;3155;49.940;8.450;2022-07-23T07:29:28;25.80;99.90
6244;DHT22;3155;49.940;8.450;2022-07-23T07:31:55;26.30;99.90
6244;DHT22;3155;49.940;8.450;2022-07-23T07:34:21;26.90;99.90
6244;DHT22;3155;49.940;8.450;2022-07-23T07:36:48;27.00;99.90
6244;DHT22;3155;49.940;8.450;2022-07-23T07:39:16;27.50;99.90
6244;DHT22;3155;49.940;8.450;2022-07-23T07:41:43;27.60;99.90
6244;DHT22;3155;49.940;8.450;2022-07-23T07:44:10;27.50;99.90
6244;DHT22;3155;49.940;8.450;2022-07-23T07:46:36;28.20;99.90
6244;DHT22;3155;49.940;8.450;2022-07-23T07:49:03;28.80;99.90
6244;DHT22;3155;49.940;8.450;2022-07-23T07:51:31;29.30;99.90
6244;DHT22;3155;49.940;8.450;2022-07-23T07:53:59;29.10;99.90
6244;DHT22;3155;49.940;8.450;2022-07-23T07:56:27;28.60;99.90
6244;DHT22;3155;49.940;8.450;2022-07-23T07:58:54;28.40;99.90
6244;DHT22;3155;49.940;8.450;2022-07-23T08:01:21;28.30;99.90
6244;DHT22;3155;49.940;8.450;2022-07-23T08:03:51;28.40;99.90
6244;DHT22;3155;49.940;8.450;2022-07-23T08:06:18;27.20;99.90
6244;DHT22;3155;49.940;8.450;2022-07-23T08:08:47;27.40;99.90
6244;DHT22;3155;49.940;8.450;2022-07-23T08:11:14;27.80;99.90
6244;DHT22;3155;49.940;8.450;2022-07-23T08:13:42;27.60;99.90
6244;DHT22;3155;49.940;8.450;2022-07-23T08:16:11;28.10;99.90
6244;DHT22;3155;49.940;8.450;2022-07-23T08:18:38;28.50;99.90
6244;DHT22;3155;49.940;8.450;2022-07-23T08:21:05;29.10;99.90
6244;DHT22;3155;49.940;8.450;2022-07-23T08:23:32;29.70;99.90
6244;DHT22;3155;49.940;8.450;2022-07-23T08:25:58;30.10;99.90
6244;DHT22;3155;49.940;8.450;2022-07-23T08:28:28;30.30;99.90
6244;DHT22;3155;49.940;8.450;2022-07-23T08:30:55;30.00;99.90
6244;DHT22;3155;49.940;8.450;2022-07-23T08:33:25;30.00;99.90
6244;DHT22;3155;49.940;8.450;2022-07-23T08:36:01;29.90;99.90
6244;DHT22;3155;49.940;8.450;2022-07-23T08:38:30;30.30;99.90
6244;DHT22;3155;49.940;8.450;2022-07-23T08:40:57;30.90;99.90
6244;DHT22;3155;49.940;8.450;2022-07-23T08:43:29;31.10;99.90
6244;DHT22;3155;49.940;8.450;2022-07-23T08:45:58;31.30;99.90
6244;DHT22;3155;49.940;8.450;2022-07-23T08:48:34;30.90;99.90
6244;DHT22;3155;49.940;8.450;2022-07-23T08:51:05;30.30;99.90
6244;DHT22;3155;49.940;8.450;2022-07-23T08:53:34;29.40;99.90
6244;DHT22;3155;49.940;8.450;2022-07-23T08:56:03;28.50;99.90
6244;DHT22;3155;49.940;8.450;2022-07-23T08:58:31;28.90;99.90
6244;DHT22;3155;49.940;8.450;2022-07-23T09:00:58;28.90;99.90
6244;DHT22;3155;49.940;8.450;2022-07-23T09:03:34;28.90;99.90
6244;DHT22;3155;49.940;8.450;2022-07-23T09:06:01;29.30;99.90
6244;DHT22;3155;49.940;8.450;2022-07-23T09:08:35;29.70;99.90
6244;DHT22;3155;49.940;8.450;2022-07-23T09:11:16;28.60;99.90
6244;DHT22;3155;49.940;8.450;2022-07-23T09:13:48;27.80;99.90
6244;DHT22;3155;49.940;8.450;2022-07-23T09:16:25;28.10;99.90
6244;DHT22;3155;49.940;8.450;2022-07-23T09:19:06;28.20;99.90
6244;DHT22;3155;49.940;8.450;2022-07-23T09:21:35;28.80;99.90
6244;DHT22;3155;49.940;8.450;2022-07-23T09:24:06;29.60;99.90
6244;DHT22;3155;49.940;8.450;2022-07-23T09:26:39;30.20;99.90
6244;DHT22;3155;49.940;8.450;2022-07-23T09:29:16;30.80;99.90
